Time;durP1;ratioP1;P1;durP2;ratioP2;P2;SDS_P1;SDS_P2;PMS_P1;PMS_P2;Temp;Humidity;BMP_temperature;BMP_pressure;BME280_temperature;BME280_humidity;BME280_pressure;Samples;Min_cycle;Max_cycle;Signal;HPM_P1;HPM_P2
2022/08/20 00:00:16;;;;;;;13.63;7.40;;;;;;;-143.84;60.98;45014.78;5130006;27;20494;-74
2022/08/20 00:02:46;;;;;;;16.30;7.23;;;;;;;-143.84;60.75;45037.66;5129796;27;20434;-74
2022/08/20 00:05:15;;;;;;;10.40;7.50;;;;;;;-143.84;60.87;45014.78;5129475;27;20484;-74
2022/08/20 00:07:42;;;;;;;16.40;8.00;;;;;;;-143.84;60.11;45009.09;5129569;27;20472;-74
2022/08/20 00:10:11;;;;;;;15.37;8.20;;;;;;;-143.84;59.88;45047.16;5129809;28;20438;-74
2022/08/20 00:12:44;;;;;;;11.90;7.40;;;;;;;-143.84;60.11;44988.13;5129576;28;20445;-74
2022/08/20 00:15:13;;;;;;;11.10;7.97;;;;;;;-143.84;61.04;45024.31;5129523;28;20550;-74
2022/08/20 00:17:41;;;;;;;12.67;7.67;;;;;;;-143.84;61.12;45007.19;5129764;28;20438;-74
2022/08/20 00:20:11;;;;;;;13.40;7.67;;;;;;;-143.84;61.78;45009.09;5129571;28;20449;-74
2022/08/20 00:22:39;;;;;;;8.47;7.67;;;;;;;-143.84;61.70;44997.66;5129622;28;20498;-74
2022/08/20 00:25:07;;;;;;;11.07;6.83;;;;;;;-143.84;61.95;44988.13;5129520;28;21007;-74
2022/08/20 00:27:36;;;;;;;17.73;7.47;;;;;;;-143.84;61.96;45033.84;5129425;28;20518;-74
2022/08/20 00:30:06;;;;;;;9.27;7.70;;;;;;;-143.84;62.06;45024.31;5129258;28;20476;-74
2022/08/20 00:32:42;;;;;;;15.23;7.77;;;;;;;-143.84;62.57;45007.19;5129377;28;20444;-74
2022/08/20 00:35:10;;;;;;;8.70;7.90;;;;;;;-143.84;62.15;45033.84;5129333;28;20537;-74
2022/08/20 00:37:37;;;;;;;8.53;7.60;;;;;;;-143.84;61.83;45009.09;5129679;28;20437;-74
2022/08/20 00:40:06;;;;;;;11.23;7.10;;;;;;;-143.84;62.01;45003.38;5129775;28;20451;-74
2022/08/20 00:42:42;;;;;;;14.83;8.60;;;;;;;-143.84;61.86;45045.25;5129362;28;20434;-74
2022/08/20 00:45:10;;;;;;;8.00;7.20;;;;;;;-143.84;62.11;45005.28;5129473;28;20480;-74
2022/08/20 00:47:40;;;;;;;11.73;8.03;;;;;;;-143.84;62.27;45039.53;5129366;28;20502;-74
2022/08/20 00:50:09;;;;;;;15.13;8.73;;;;;;;-143.84;62.40;45024.31;5129127;28;20491;-74
2022/08/20 00:52:37;;;;;;;15.63;8.03;;;;;;;-143.84;62.81;45022.41;5129158;28;20886;-74
2022/08/20 00:55:06;;;;;;;12.17;7.47;;;;;;;-143.84;62.95;45031.94;5129316;28;20514;-74
2022/08/20 00:57:37;;;;;;;8.03;7.37;;;;;;;-143.84;62.86;45016.69;5130695;27;20494;-74
2022/08/20 01:00:13;;;;;;;13.73;7.53;;;;;;;-143.84;63.27;45030.03;5133606;27;20438;-74
2022/08/20 01:02:42;;;;;;;10.63;7.43;;;;;;;-143.84;63.33;45024.31;5133028;27;20433;-74
2022/08/20 01:05:10;;;;;;;10.23;7.33;;;;;;;-143.84;63.23;45005.28;5132815;27;20477;-74
2022/08/20 01:07:38;;;;;;;11.57;7.63;;;;;;;-143.84;63.14;45030.03;5132759;27;20438;-74
2022/08/20 01:10:11;;;;;;;11.30;8.20;;;;;;;-143.84;62.86;45020.50;5133050;27;20805;-74
2022/08/20 01:12:41;;;;;;;15.13;7.47;;;;;;;-143.84;62.81;45028.13;5133014;27;20430;-74
2022/08/20 01:15:13;;;;;;;8.90;8.07;;;;;;;-143.84;62.85;45028.13;5132799;27;21282;-74
2022/08/20 01:17:45;;;;;;;22.33;8.10;;;;;;;-143.84;62.69;44990.03;5132891;27;20902;-74
2022/08/20 01:20:16;;;;;;;11.07;7.67;;;;;;;-143.84;62.58;45022.41;5132582;27;20796;-74
2022/08/20 01:25:45;;;;;;;17.97;7.63;;;;;;;-143.84;62.29;45039.53;5132799;27;20488;-74
2022/08/20 01:28:16;;;;;;;15.60;7.53;;;;;;;-143.84;62.67;45007.19;5132590;27;20881;-74
2022/08/20 01:30:44;;;;;;;19.00;7.20;;;;;;;-143.84;62.83;45012.88;5132555;27;20426;-74
2022/08/20 01:33:11;;;;;;;15.53;7.53;;;;;;;-143.84;62.89;45018.59;5132472;27;20445;-74
2022/08/20 01:35:40;;;;;;;13.63;6.90;;;;;;;-143.84;62.71;45014.78;5132487;27;20826;-74
2022/08/20 01:38:08;;;;;;;19.40;8.07;;;;;;;-143.84;63.14;45009.09;5132405;27;20860;-74
2022/08/20 01:41:04;;;;;;;14.00;8.43;;;;;;;-143.84;63.19;45005.28;5132365;27;20860;-74
2022/08/20 01:43:31;;;;;;;9.93;7.90;;;;;;;-143.84;63.54;45010.97;5132210;27;20551;-74
2022/08/20 01:45:59;;;;;;;16.73;8.37;;;;;;;-143.84;63.22;45009.09;5132252;27;20478;-74
2022/08/20 01:48:26;;;;;;;13.43;7.30;;;;;;;-143.84;63.60;45016.69;5132105;27;20499;-74
2022/08/20 01:51:00;;;;;;;13.10;7.83;;;;;;;-143.84;63.79;45007.19;5132099;27;20441;-74
2022/08/20 01:53:33;;;;;;;14.53;8.60;;;;;;;-143.84;63.85;45010.97;5131921;27;20441;-73
2022/08/20 01:56:03;;;;;;;13.10;7.60;;;;;;;-143.84;64.10;44999.56;5132177;27;20537;-74
2022/08/20 01:58:31;;;;;;;8.20;7.47;;;;;;;-143.84;63.97;45007.19;5131918;27;20438;-74
2022/08/20 02:00:58;;;;;;;15.53;7.93;;;;;;;-143.84;64.14;45010.97;5131954;27;20916;-74
2022/08/20 02:03:25;;;;;;;18.90;7.20;;;;;;;-143.84;64.24;45010.97;5131909;27;20438;-74
2022/08/20 02:05:53;;;;;;;12.93;8.43;;;;;;;-143.84;64.54;45007.19;5132344;27;20485;-74
2022/08/20 02:08:21;;;;;;;14.43;8.53;;;;;;;-143.84;64.60;45020.50;5131421;27;20434;-74
2022/08/20 02:10:49;;;;;;;16.97;7.50;;;;;;;-143.84;64.83;45026.22;5131649;27;20943;-74
2022/08/20 02:13:17;;;;;;;20.83;7.73;;;;;;;-143.84;65.27;44997.66;5131660;27;20506;-74
2022/08/20 02:15:44;;;;;;;17.83;8.00;;;;;;;-143.84;65.52;45016.69;5131794;27;20852;-74
2022/08/20 02:18:14;;;;;;;11.30;8.07;;;;;;;-143.84;65.59;45018.59;5131361;27;20518;-74
2022/08/20 02:20:43;;;;;;;11.10;7.70;;;;;;;-143.84;65.64;45024.31;5131449;27;20434;-74
2022/08/20 02:23:12;;;;;;;16.97;9.30;;;;;;;-143.84;65.74;44999.56;5131466;27;20448;-74
2022/08/20 02:25:42;;;;;;;8.83;7.93;;;;;;;-143.84;65.83;45010.97;5131285;27;20492;-74
2022/08/20 02:28:15;;;;;;;9.20;8.27;;;;;;;-143.84;66.04;45030.03;5131382;27;20434;-74
2022/08/20 02:30:48;;;;;;;9.37;8.23;;;;;;;-143.84;66.02;45018.59;5131044;27;20502;-74
2022/08/20 02:33:17;;;;;;;16.23;8.57;;;;;;;-143.84;66.00;45014.78;5131253;27;20446;-74
2022/08/20 02:35:47;;;;;;;11.50;8.97;;;;;;;-143.84;66.02;45041.44;5131182;27;20446;-74
2022/08/20 02:38:16;;;;;;;12.03;8.10;;;;;;;-143.84;65.96;45009.09;5131104;27;20430;-74
2022/08/20 02:40:44;;;;;;;17.50;7.80;;;;;;;-143.84;65.69;45012.88;5131390;27;20438;-74
2022/08/20 02:43:13;;;;;;;9.53;7.70;;;;;;;-143.84;65.74;45018.59;5131148;27;20494;-74
2022/08/20 02:45:43;;;;;;;21.93;9.50;;;;;;;-143.84;66.42;45007.19;5130981;27;20547;-74
2022/08/20 02:48:19;;;;;;;9.17;8.40;;;;;;;-143.84;66.25;45031.94;5131266;27;20453;-74
2022/08/20 02:50:49;;;;;;;11.80;9.00;;;;;;;-143.84;66.11;45026.22;5130886;27;20449;-74
2022/08/20 02:53:17;;;;;;;11.67;8.03;;;;;;;-143.84;66.07;45033.84;5130885;27;20446;-74
2022/08/20 02:55:44;;;;;;;15.10;11.37;;;;;;;-143.84;66.00;45026.22;5130698;27;20426;-74
2022/08/20 02:58:12;;;;;;;20.10;12.60;;;;;;;-143.84;65.82;45018.59;5130761;27;20438;-74
2022/08/20 03:00:40;;;;;;;21.03;13.57;;;;;;;-143.84;65.84;44999.56;5130657;27;20437;-74
2022/08/20 03:03:08;;;;;;;23.13;18.00;;;;;;;-143.84;65.95;45018.59;5130669;27;20883;-74
2022/08/20 03:05:38;;;;;;;20.67;15.03;;;;;;;-143.84;65.76;45012.88;5123834;27;20485;-74
2022/08/20 03:08:07;;;;;;;16.17;12.03;;;;;;;-143.84;65.88;45028.13;5110194;27;20427;-73
2022/08/20 03:10:36;;;;;;;11.43;9.80;;;;;;;-143.84;65.80;45014.78;5127498;27;20446;-74
2022/08/20 03:13:04;;;;;;;16.67;9.10;;;;;;;-143.84;65.55;45014.78;5130662;27;20442;-74
2022/08/20 03:15:33;;;;;;;26.83;9.40;;;;;;;-143.84;65.49;45041.44;5130383;27;20790;-74
2022/08/20 03:18:01;;;;;;;17.90;9.53;;;;;;;-143.84;65.57;45033.84;5130586;27;20438;-74
2022/08/20 03:20:29;;;;;;;11.30;8.60;;;;;;;-143.84;65.38;45014.78;5129624;27;20498;-75
2022/08/20 03:22:57;;;;;;;12.63;8.93;;;;;;;-143.84;65.22;45020.50;5130084;27;20438;-74
2022/08/20 03:25:25;;;;;;;9.70;7.67;;;;;;;-143.84;65.06;45033.84;5130136;27;20530;-74
2022/08/20 03:27:53;;;;;;;11.40;8.90;;;;;;;-143.84;65.03;45009.09;5130282;27;20438;-75
2022/08/20 03:30:21;;;;;;;13.17;8.33;;;;;;;-143.84;64.54;45026.22;5130494;27;20435;-75
2022/08/20 03:32:48;;;;;;;9.57;8.47;;;;;;;-143.84;64.73;45033.84;5130107;27;20476;-75
2022/08/20 03:35:17;;;;;;;16.33;8.20;;;;;;;-143.84;64.85;45030.03;5130098;27;20978;-74
2022/08/20 03:37:45;;;;;;;8.80;7.90;;;;;;;-143.84;64.25;45018.59;5130087;27;20869;-74
2022/08/20 03:40:16;;;;;;;8.53;7.73;;;;;;;-143.84;64.20;45022.41;5130124;27;20511;-74
2022/08/20 03:42:44;;;;;;;11.03;7.40;;;;;;;-143.84;64.74;45009.09;5129926;27;20438;-74
2022/08/20 03:45:12;;;;;;;10.00;7.00;;;;;;;-143.84;64.62;45016.69;5129879;27;20495;-75
2022/08/20 03:47:40;;;;;;;24.93;8.53;;;;;;;-143.84;64.15;45014.78;5130153;27;20546;-75
2022/08/20 03:50:10;;;;;;;25.23;8.40;;;;;;;-143.84;63.88;45014.78;5130004;27;20442;-74
2022/08/20 03:52:37;;;;;;;16.73;7.70;;;;;;;-143.84;64.30;44995.75;5130035;27;20768;-74
2022/08/20 03:55:05;;;;;;;14.83;7.90;;;;;;;-143.84;64.19;45014.78;5129837;27;20442;-74
2022/08/20 03:57:34;;;;;;;16.83;8.67;;;;;;;-143.84;63.51;45014.78;5129120;27;20952;-74
2022/08/20 04:00:02;;;;;;;10.53;7.70;;;;;;;-143.84;63.86;45010.97;5129012;27;20455;-76
2022/08/20 04:02:29;;;;;;;15.00;8.87;;;;;;;-143.84;63.67;45001.47;5129174;27;20434;-76
2022/08/20 04:04:56;;;;;;;16.20;7.83;;;;;;;-143.84;62.86;44986.22;5129457;27;20438;-76
2022/08/20 04:07:26;;;;;;;14.63;7.53;;;;;;;-143.84;62.26;45010.97;5129037;27;20542;-76
2022/08/20 04:09:54;;;;;;;22.87;7.67;;;;;;;-143.84;61.83;44980.53;5129485;27;20438;-76
2022/08/20 04:12:22;;;;;;;14.63;7.37;;;;;;;-143.84;61.41;45018.59;5129476;28;20442;-76
2022/08/20 04:14:51;;;;;;;11.03;8.73;;;;;;;-143.84;60.26;45003.38;5129785;28;20426;-76
2022/08/20 04:17:20;;;;;;;13.10;7.80;;;;;;;-143.84;60.20;44995.75;5129787;28;20450;-76
2022/08/20 04:19:47;;;;;;;13.83;7.50;;;;;;;-143.84;60.69;44999.56;5129908;28;20666;-76
2022/08/20 04:22:15;;;;;;;10.80;7.40;;;;;;;-143.84;61.15;45007.19;5129647;28;20438;-75
2022/08/20 04:24:43;;;;;;;9.03;8.10;;;;;;;-143.84;61.01;44984.31;5129273;28;21030;-74
2022/08/20 04:27:13;;;;;;;16.37;8.60;;;;;;;-143.84;60.60;45005.28;5129303;28;20534;-74
2022/08/20 04:29:43;;;;;;;20.47;8.80;;;;;;;-143.84;60.77;45003.38;5129656;28;21374;-74
2022/08/20 04:32:12;;;;;;;23.37;7.80;;;;;;;-143.84;61.23;44986.22;5131912;27;20466;-74
2022/08/20 04:34:40;;;;;;;10.23;7.63;;;;;;;-143.84;61.02;44991.94;5133514;27;20963;-74
2022/08/20 04:37:07;;;;;;;8.90;8.00;;;;;;;-143.84;60.50;44980.53;5115358;27;20448;-74
2022/08/20 04:39:35;;;;;;;17.20;7.70;;;;;;;-143.84;59.85;44972.91;5133307;27;20430;-74
2022/08/20 04:42:01;;;;;;;10.37;6.90;;;;;;;-143.84;57.02;44995.75;5133461;27;20486;-74
2022/08/20 04:44:28;;;;;;;13.93;7.23;;;;;;;-143.84;55.80;44982.41;5133331;27;20449;-74
2022/08/20 04:46:55;;;;;;;13.10;7.13;;;;;;;-143.84;55.98;44953.88;5133336;27;20507;-74
2022/08/20 04:49:26;;;;;;;11.20;7.10;;;;;;;-143.84;50.76;44955.75;5133355;27;20486;-73
2022/08/20 04:51:54;;;;;;;14.90;6.80;;;;;;;-143.84;49.88;44961.47;5133637;27;20442;-74
2022/08/20 04:54:21;;;;;;;17.03;6.90;;;;;;;-143.84;48.43;44955.75;5133322;27;20446;-74
2022/08/20 04:56:48;;;;;;;8.47;6.87;;;;;;;-143.84;47.51;44936.72;5132844;27;21029;-74
2022/08/20 04:59:16;;;;;;;13.93;6.53;;;;;;;-143.84;48.06;44927.19;5133196;27;20442;-74
2022/08/20 05:01:43;;;;;;;8.40;6.27;;;;;;;-143.84;46.04;44900.53;5133366;27;20430;-74
2022/08/20 05:04:10;;;;;;;15.60;7.00;;;;;;;-143.84;44.78;44898.66;5133175;27;20441;-74
2022/08/20 05:06:39;;;;;;;11.30;7.40;;;;;;;-143.84;44.41;44931.00;5132996;27;20474;-74
2022/08/20 05:09:07;;;;;;;9.27;6.80;;;;;;;-143.84;44.01;44885.31;5133286;27;20461;-74
2022/08/20 05:11:34;;;;;;;11.97;6.83;;;;;;;-143.84;44.40;44885.31;5132859;27;20522;-75
2022/08/20 05:14:01;;;;;;;10.63;6.83;;;;;;;-143.84;43.07;44904.34;5133135;27;20430;-74
2022/08/20 05:16:28;;;;;;;12.17;6.60;;;;;;;-143.84;42.61;44896.75;5133228;27;20438;-74
2022/08/20 05:18:55;;;;;;;16.90;6.30;;;;;;;-143.84;41.12;44879.59;5133011;27;21247;-74
2022/08/20 05:21:23;;;;;;;13.70;6.90;;;;;;;-143.84;42.36;44868.19;5132895;27;20446;-75
2022/08/20 05:23:51;;;;;;;10.97;5.97;;;;;;;-143.84;41.05;44891.03;5132957;27;20441;-75
2022/08/20 05:26:18;;;;;;;19.07;6.67;;;;;;;-143.84;40.43;44845.31;5132156;27;20478;-72
2022/08/20 05:28:48;;;;;;;13.03;6.27;;;;;;;-143.84;39.02;44805.34;5134497;27;20433;-72
2022/08/20 05:31:15;;;;;;;15.17;6.27;;;;;;;-143.84;39.67;44849.13;5134232;27;20466;-72
2022/08/20 05:33:42;;;;;;;11.97;5.80;;;;;;;-143.84;39.72;44849.13;5134569;27;20434;-74
2022/08/20 05:36:09;;;;;;;11.53;5.80;;;;;;;-143.84;39.05;44822.47;5133633;27;21013;-74
2022/08/20 05:38:37;;;;;;;15.10;5.93;;;;;;;-143.84;39.00;44841.53;5132676;27;20465;-75
2022/08/20 05:41:06;;;;;;;10.87;6.37;;;;;;;-143.84;37.98;44849.13;5132254;27;21386;-74
2022/08/20 05:43:33;;;;;;;13.03;5.90;;;;;;;-143.84;37.17;44822.47;5131623;27;20438;-74
2022/08/20 05:46:01;;;;;;;9.60;6.40;;;;;;;-143.84;37.49;44833.91;5131841;27;21012;-74
2022/08/20 05:48:29;;;;;;;12.83;5.37;;;;;;;-143.84;38.05;44807.25;5131731;27;20651;-74
2022/08/20 05:50:56;;;;;;;7.07;6.37;;;;;;;-143.84;36.12;44805.34;5131145;27;20438;-74
2022/08/20 05:53:25;;;;;;;13.13;5.23;;;;;;;-143.84;36.79;44822.47;5130574;27;20434;-74
2022/08/20 05:55:53;;;;;;;12.63;6.27;;;;;;;-143.84;37.62;44776.78;5130330;27;20446;-75
2022/08/20 05:58:24;;;;;;;15.20;5.73;;;;;;;-143.84;37.30;44820.56;5130694;27;20799;-75
2022/08/20 06:00:53;;;;;;;11.20;6.27;;;;;;;-143.84;36.37;44780.59;5130659;27;20490;-74
2022/08/20 06:06:05;;;;;;;13.13;6.00;;;;;;;-143.84;36.17;44790.13;5131045;27;20518;-74
2022/08/20 06:08:33;;;;;;;10.53;6.00;;;;;;;-143.84;35.61;44807.25;5131462;27;20515;-74
2022/08/20 06:11:00;;;;;;;10.60;5.93;;;;;;;-143.84;35.99;44784.41;5131725;27;20442;-75
2022/08/20 06:13:29;;;;;;;12.70;5.87;;;;;;;-143.84;37.38;44786.31;5131842;27;20839;-75
2022/08/20 06:15:56;;;;;;;13.90;5.50;;;;;;;-143.84;35.87;44778.69;5131642;27;20445;-75
2022/08/20 06:18:23;;;;;;;9.90;6.17;;;;;;;-143.84;36.44;44803.44;5131751;27;20442;-75
2022/08/20 06:20:51;;;;;;;21.47;5.90;;;;;;;-143.84;35.50;44771.06;5131516;27;20859;-74
2022/08/20 06:23:18;;;;;;;9.73;6.10;;;;;;;-143.84;36.72;44795.81;5131306;27;20467;-74
2022/08/20 06:25:48;;;;;;;10.93;6.07;;;;;;;-143.84;35.76;44801.53;5131444;27;20550;-74
2022/08/20 06:28:16;;;;;;;16.47;5.23;;;;;;;-143.84;35.50;44757.75;5131264;27;20505;-75
2022/08/20 06:30:45;;;;;;;14.67;6.20;;;;;;;-143.84;35.86;44765.34;5131324;27;20438;-75
2022/08/20 06:33:13;;;;;;;12.80;6.13;;;;;;;-143.84;35.02;44818.66;5131442;27;20902;-74
2022/08/20 06:35:40;;;;;;;11.43;6.60;;;;;;;-143.84;35.71;44748.22;5131440;27;20431;-74
2022/08/20 06:38:10;;;;;;;10.63;6.70;;;;;;;-143.84;36.16;44755.84;5131261;27;20442;-74
2022/08/20 06:40:37;;;;;;;6.03;5.33;;;;;;;-143.84;35.48;44776.78;5131111;27;20786;-74
2022/08/20 06:43:04;;;;;;;14.03;8.00;;;;;;;-143.84;35.39;44767.25;5130858;27;20446;-75
2022/08/20 06:45:34;;;;;;;12.83;5.63;;;;;;;-143.84;34.48;44721.56;5131074;27;20849;-74
2022/08/20 06:48:09;;;;;;;17.40;5.63;;;;;;;-143.84;34.39;44755.84;5130725;27;20573;-74
2022/08/20 06:50:39;;;;;;;15.90;6.17;;;;;;;-143.84;34.48;44738.69;5131130;27;21036;-74
2022/08/20 06:53:07;;;;;;;13.67;5.97;;;;;;;-143.84;34.08;44740.59;5130682;27;20523;-74
2022/08/20 06:55:35;;;;;;;18.73;6.00;;;;;;;-143.84;33.57;44753.94;5130771;27;20834;-74
2022/08/20 06:58:05;;;;;;;9.67;5.03;;;;;;;-143.84;34.36;44763.47;5130910;27;20453;-74
2022/08/20 07:00:34;;;;;;;14.07;5.63;;;;;;;-143.84;33.58;44759.66;5131000;27;20499;-74
2022/08/20 07:03:04;;;;;;;9.70;4.97;;;;;;;-143.84;33.80;44734.91;5130621;27;20430;-74
2022/08/20 07:05:33;;;;;;;13.87;7.63;;;;;;;-143.84;35.22;44772.97;5130547;27;20457;-74
2022/08/20 07:08:00;;;;;;;24.17;6.63;;;;;;;-143.84;35.17;44742.50;5130414;27;21055;-74
2022/08/20 07:10:29;;;;;;;9.83;6.70;;;;;;;-143.84;35.60;44757.75;5130588;27;20461;-76
2022/08/20 07:12:58;;;;;;;14.30;8.90;;;;;;;-143.84;36.10;44765.34;5130573;27;20442;-75
2022/08/20 07:15:25;;;;;;;15.70;7.93;;;;;;;-143.84;37.12;44767.25;5115402;27;20462;-75
2022/08/20 07:17:54;;;;;;;9.57;7.67;;;;;;;-143.84;37.17;44753.94;5109881;28;20451;-75
2022/08/20 07:20:23;;;;;;;13.57;7.63;;;;;;;-143.84;36.70;44769.16;5110168;28;20431;-75
2022/08/20 07:22:51;;;;;;;15.63;7.47;;;;;;;-143.84;36.44;44772.97;5109905;28;20520;-75
2022/08/20 07:25:20;;;;;;;19.33;8.03;;;;;;;-143.84;36.97;44814.88;5109552;28;20483;-75
2022/08/20 07:27:48;;;;;;;10.23;7.20;;;;;;;-143.84;36.99;44774.88;5109674;28;20471;-74
2022/08/20 07:33:04;;;;;;;22.70;8.00;;;;;;;-143.84;37.16;44776.78;5109578;28;20430;-74
2022/08/20 07:35:32;;;;;;;10.20;5.93;;;;;;;-143.84;35.21;44782.50;5109684;28;20431;-75
2022/08/20 07:37:59;;;;;;;15.50;6.50;;;;;;;-143.84;36.53;44790.13;5109805;28;20443;-74
2022/08/20 07:40:29;;;;;;;12.33;5.50;;;;;;;-143.84;35.00;44772.97;5110037;28;20435;-74
2022/08/20 07:42:59;;;;;;;19.77;6.00;;;;;;;-143.84;35.62;44774.88;5109331;28;20419;-74
2022/08/20 07:45:27;;;;;;;13.73;5.63;;;;;;;-143.84;35.25;44755.84;5109333;28;20442;-74
2022/08/20 07:47:55;;;;;;;14.03;5.93;;;;;;;-143.84;36.50;44753.94;5109510;28;20498;-74
2022/08/20 07:50:24;;;;;;;17.37;6.30;;;;;;;-143.84;35.99;44786.31;5109008;28;20520;-74
2022/08/20 07:52:53;;;;;;;19.17;7.23;;;;;;;-143.84;37.72;44767.25;5109492;28;21017;-74
2022/08/20 07:55:22;;;;;;;23.37;6.27;;;;;;;-143.84;36.24;44744.41;5109623;28;20450;-74
2022/08/20 07:57:50;;;;;;;22.53;6.40;;;;;;;-143.84;36.07;44772.97;5108653;28;20451;-74
2022/08/20 08:00:20;;;;;;;13.00;6.07;;;;;;;-143.84;36.44;44757.75;5109095;28;20434;-74
2022/08/20 08:02:47;;;;;;;12.03;6.37;;;;;;;-143.84;37.30;44763.47;5109347;28;20443;-74
2022/08/20 08:05:17;;;;;;;17.60;7.00;;;;;;;-143.84;36.10;44767.25;5108935;28;20449;-74
2022/08/20 08:07:44;;;;;;;23.73;6.80;;;;;;;-143.84;36.05;44780.59;5108836;28;20478;-75
2022/08/20 08:10:20;;;;;;;20.90;7.13;;;;;;;-143.84;35.38;44771.06;5109197;28;20947;-75
2022/08/20 08:12:50;;;;;;;8.30;6.10;;;;;;;-143.84;35.47;44767.25;5108720;28;20427;-74
2022/08/20 08:15:21;;;;;;;18.73;6.43;;;;;;;-143.84;35.35;44767.25;5109206;28;20419;-73
2022/08/20 08:17:51;;;;;;;14.10;6.30;;;;;;;-143.84;35.59;44763.47;5108992;28;20426;-73
2022/08/20 08:20:21;;;;;;;16.20;5.60;;;;;;;-143.84;35.93;44776.78;5108950;28;20803;-74
2022/08/20 08:22:49;;;;;;;16.57;5.90;;;;;;;-143.84;35.35;44763.47;5108967;28;20443;-74
2022/08/20 08:25:18;;;;;;;12.70;5.87;;;;;;;-143.84;35.13;44767.25;5108533;28;20490;-74
2022/08/20 08:27:47;;;;;;;11.57;5.00;;;;;;;-143.84;35.02;44776.78;5107633;28;20479;-74
2022/08/20 08:30:16;;;;;;;9.17;5.50;;;;;;;-143.84;34.91;44755.84;5108316;28;20446;-74
2022/08/20 08:35:25;;;;;;;9.23;5.63;;;;;;;-143.84;35.41;44784.41;5107138;28;20579;-74
2022/08/20 08:37:53;;;;;;;19.83;6.57;;;;;;;-143.84;35.82;44784.41;5108092;28;20434;-74
2022/08/20 08:40:22;;;;;;;7.70;5.17;;;;;;;-143.84;35.79;44771.06;5108975;28;20444;-74
2022/08/20 08:42:56;;;;;;;27.47;5.83;;;;;;;-143.84;35.97;44755.84;5108601;28;20441;-74
2022/08/20 08:45:25;;;;;;;12.93;5.70;;;;;;;-143.84;36.21;44801.53;5108997;28;20514;-74
2022/08/20 08:47:53;;;;;;;10.97;6.00;;;;;;;-143.84;36.17;44797.72;5108774;28;20517;-74
2022/08/20 08:50:24;;;;;;;15.10;6.77;;;;;;;-143.84;36.51;44782.50;5108621;28;20467;-74
2022/08/20 08:52:58;;;;;;;10.37;5.60;;;;;;;-143.84;36.44;44790.13;5109635;28;20534;-75
2022/08/20 08:55:28;;;;;;;11.53;6.00;;;;;;;-143.84;36.20;44792.00;5108675;28;20461;-74
2022/08/20 08:57:59;;;;;;;12.67;6.27;;;;;;;-143.84;36.77;44759.66;5108017;28;20496;-73
2022/08/20 09:00:27;;;;;;;13.00;5.47;;;;;;;-143.84;35.92;44790.13;5108834;28;20518;-73
2022/08/20 09:02:59;;;;;;;9.07;6.10;;;;;;;-143.84;36.36;44803.44;5108479;28;20471;-73
2022/08/20 09:05:31;;;;;;;29.13;6.53;;;;;;;-143.84;36.74;44793.91;5108335;28;20779;-73
2022/08/20 09:08:02;;;;;;;16.83;6.83;;;;;;;-143.84;37.67;44852.94;5108543;28;20543;-73
2022/08/20 09:10:31;;;;;;;23.77;6.00;;;;;;;-143.84;39.04;44812.97;5108913;28;20474;-73
2022/08/20 09:13:02;;;;;;;15.20;6.30;;;;;;;-143.84;37.72;44849.13;5107899;28;20435;-74
2022/08/20 09:15:30;;;;;;;8.60;6.20;;;;;;;-143.84;38.21;44839.63;5108592;28;20797;-74
2022/08/20 09:17:57;;;;;;;7.13;6.27;;;;;;;-143.84;37.95;44807.25;5108553;28;20449;-74
2022/08/20 09:20:24;;;;;;;15.50;6.40;;;;;;;-143.84;38.23;44778.69;5112162;28;20431;-74
2022/08/20 09:22:51;;;;;;;16.27;6.30;;;;;;;-143.84;37.53;44801.53;5112279;28;20459;-73
2022/08/20 09:25:19;;;;;;;14.27;6.90;;;;;;;-143.84;37.89;44818.66;5111985;28;20466;-73
2022/08/20 09:27:48;;;;;;;15.93;7.17;;;;;;;-143.84;38.78;44797.72;5111417;28;20562;-74
2022/08/20 09:30:17;;;;;;;14.27;6.70;;;;;;;-143.84;39.33;44839.63;5112184;28;20447;-73
2022/08/20 09:32:44;;;;;;;11.07;6.30;;;;;;;-143.84;38.85;44820.56;5111977;28;20438;-73
2022/08/20 09:35:12;;;;;;;10.90;6.83;;;;;;;-143.84;39.79;44792.00;5112052;28;20448;-77
2022/08/20 09:37:39;;;;;;;9.00;7.37;;;;;;;-143.84;39.92;44822.47;5131441;27;20457;-74
2022/08/20 09:40:08;;;;;;;10.50;6.37;;;;;;;-143.84;40.36;44830.09;5132316;27;20832;-73
2022/08/20 09:42:37;;;;;;;10.80;7.00;;;;;;;-143.84;39.86;44849.13;5132414;27;20446;-74
2022/08/20 09:45:07;;;;;;;18.73;7.20;;;;;;;-143.84;40.65;44826.28;5132230;27;20487;-73
2022/08/20 09:47:34;;;;;;;12.37;6.70;;;;;;;-143.84;40.58;44852.94;5132170;27;20998;-73
2022/08/20 09:50:01;;;;;;;18.93;7.90;;;;;;;-143.84;42.55;44854.84;5132384;27;20916;-73
2022/08/20 09:52:31;;;;;;;12.93;7.30;;;;;;;-143.84;41.01;44862.47;5132155;27;20536;-74
2022/08/20 09:55:01;;;;;;;18.07;7.93;;;;;;;-143.84;41.80;44839.63;5132010;27;20454;-74
2022/08/20 09:57:30;;;;;;;14.13;6.97;;;;;;;-143.84;39.64;44824.38;5132105;27;20935;-73
2022/08/20 10:00:04;;;;;;;10.67;6.53;;;;;;;-143.84;40.26;44837.72;5131697;27;20433;-74
2022/08/20 10:02:32;;;;;;;7.60;6.77;;;;;;;-143.84;40.46;44856.75;5132085;27;21199;-74
2022/08/20 10:04:59;;;;;;;8.67;7.50;;;;;;;-143.84;42.58;44839.63;5132005;27;20457;-74
2022/08/20 10:07:27;;;;;;;15.83;6.90;;;;;;;-143.84;42.49;44858.66;5131806;27;20453;-73
2022/08/20 10:09:54;;;;;;;9.90;7.07;;;;;;;-143.84;42.01;44858.66;5131801;27;20439;-74
2022/08/20 10:12:21;;;;;;;9.23;7.27;;;;;;;-143.84;41.53;44835.81;5131785;27;20449;-74
2022/08/20 10:14:48;;;;;;;12.80;7.93;;;;;;;-143.84;44.59;44875.78;5131554;27;20444;-74
2022/08/20 10:17:16;;;;;;;14.40;7.63;;;;;;;-143.84;43.89;44849.13;5131630;27;20944;-74
2022/08/20 10:19:44;;;;;;;8.33;7.27;;;;;;;-143.84;45.42;44839.63;5131502;27;20537;-73
2022/08/20 10:22:11;;;;;;;9.43;7.10;;;;;;;-143.84;45.69;44845.31;5131680;27;20442;-74
2022/08/20 10:24:39;;;;;;;15.43;8.73;;;;;;;-143.84;44.99;44832.00;5131330;27;20473;-73
2022/08/20 10:27:06;;;;;;;20.80;9.57;;;;;;;-143.84;47.22;44873.88;5131664;27;20442;-73
2022/08/20 10:29:33;;;;;;;21.90;9.57;;;;;;;-143.84;49.23;44891.03;5131069;27;20991;-76
2022/08/20 10:32:10;;;;;;;8.87;8.03;;;;;;;-143.84;50.28;44883.41;5131566;27;20441;-76
2022/08/20 10:34:38;;;;;;;9.60;7.87;;;;;;;-143.84;47.58;44833.91;5131264;27;20445;-76
2022/08/20 10:37:07;;;;;;;17.60;8.80;;;;;;;-143.84;47.65;44877.69;5131611;27;20431;-75
2022/08/20 10:39:35;;;;;;;9.83;8.83;;;;;;;-143.84;48.40;44879.59;5131511;27;20438;-75
2022/08/20 10:42:02;;;;;;;20.93;8.20;;;;;;;-143.84;44.92;44894.84;5131373;27;20499;-75
2022/08/20 10:44:29;;;;;;;11.73;9.53;;;;;;;-143.84;48.35;44864.38;5131222;27;20449;-76
2022/08/20 10:46:56;;;;;;;12.53;10.73;;;;;;;-143.84;50.42;44875.78;5131036;27;20434;-76
2022/08/20 10:49:24;;;;;;;11.07;9.67;;;;;;;-143.84;50.39;44892.94;5130939;27;20484;-76
2022/08/20 10:51:51;;;;;;;14.93;10.43;;;;;;;-143.84;50.76;44904.34;5131293;27;20426;-76
2022/08/20 10:54:19;;;;;;;19.40;12.90;;;;;;;-143.84;52.61;44892.94;5130917;27;20515;-76
2022/08/20 10:56:46;;;;;;;17.00;11.63;;;;;;;-143.84;54.64;44860.56;5131400;27;20441;-76
2022/08/20 10:59:13;;;;;;;18.40;11.10;;;;;;;-143.84;51.38;44885.31;5131067;27;20441;-76
2022/08/20 11:01:41;;;;;;;11.80;7.40;;;;;;;-143.84;45.07;44896.75;5131377;27;20854;-76
2022/08/20 11:04:08;;;;;;;21.70;8.10;;;;;;;-143.84;46.47;44892.94;5131126;27;20423;-75
2022/08/20 11:06:36;;;;;;;12.07;8.17;;;;;;;-143.84;52.10;44877.69;5131207;27;20442;-76
2022/08/20 11:09:03;;;;;;;13.07;10.27;;;;;;;-143.84;51.24;44883.41;5130683;27;20601;-76
2022/08/20 11:11:31;;;;;;;13.83;9.07;;;;;;;-143.84;47.69;44881.50;5130864;27;20931;-75
2022/08/20 11:13:58;;;;;;;12.80;8.87;;;;;;;-143.84;46.78;44891.03;5130479;27;20502;-76
2022/08/20 11:16:25;;;;;;;31.87;9.43;;;;;;;-143.84;47.78;44887.22;5130587;27;20438;-75
2022/08/20 11:18:53;;;;;;;15.40;8.80;;;;;;;-143.84;49.42;44875.78;5130786;27;20430;-76
2022/08/20 11:21:20;;;;;;;15.83;8.53;;;;;;;-143.84;49.98;44902.44;5130359;27;20434;-76
2022/08/20 11:23:47;;;;;;;18.30;9.87;;;;;;;-143.84;50.54;44892.94;5130543;27;20443;-76
2022/08/20 11:26:21;;;;;;;11.40;10.17;;;;;;;-143.84;54.21;44908.16;5130383;27;20481;-74